KLBX

Texas Gulf Coast Regional Airport

Angleton/Lake Jackson, Texas, USA
METAR KLBX 191453Z AUTO 21010G14KT 10SM FEW026 FEW033 30/25 A2995 RMK AO2 SLP142 T03000250 51008
Observed Flight Rules
Aug-19 @ 14:53 UTC (46 minutes ago) Visual Flight Rules
Wind Visibility Clouds
210° at 10 knots
 Gusting to 14 knots
10 miles
  • Few at 2,600' AGL
  • Few at 3,300' AGL
Temperatures Readings
Current 30°C / 86°F
Dewpoint 25°C / 77°F
Humidity 75%
Altimeter 29.95" Hg
Pressure 1014.2 hPa
Elevation 6
METAR KLBX 191453Z AUTO 21010G14KT 10SM FEW026 FEW033 30/25 A2995 RMK AO2 SLP142 T03000250 51008
Observed Flight Rules
Aug-19 @ 14:53 UTC
(46 minutes ago)
VFR
Wind Visibility
210° at 10 knots
 Gusting to 14 knots
10 miles
Clouds
  • Few at 2,600' AGL
  • Few at 3,300' AGL
Temperature Dewpoint
30°C / 86°F 25°C / 77°F
Humidity Altimeter Pressure
75% 29.95" Hg 1014.2 hPa